sensor_id;sensor_type;location;lat;lon;timestamp;temperature;humidity
13245;DHT22;6689;53.400;12.486;2023-02-28T00:01:12;0.10;99.90
13245;DHT22;6689;53.400;12.486;2023-02-28T00:03:39;0.10;99.90
13245;DHT22;6689;53.400;12.486;2023-02-28T00:06:07;0.10;99.90
13245;DHT22;6689;53.400;12.486;2023-02-28T00:08:35;0.10;99.90
13245;DHT22;6689;53.400;12.486;2023-02-28T00:11:04;0.00;99.90
13245;DHT22;6689;53.400;12.486;2023-02-28T00:13:34;0.00;99.90
13245;DHT22;6689;53.400;12.486;2023-02-28T00:16:03;0.00;99.90
13245;DHT22;6689;53.400;12.486;2023-02-28T00:18:31;0.00;99.90
13245;DHT22;6689;53.400;12.486;2023-02-28T00:20:58;0.00;99.90
13245;DHT22;6689;53.400;12.486;2023-02-28T00:23:27;0.00;99.90
13245;DHT22;6689;53.400;12.486;2023-02-28T00:25:54;0.00;99.90
13245;DHT22;6689;53.400;12.486;2023-02-28T00:28:22;-0.10;99.90
13245;DHT22;6689;53.400;12.486;2023-02-28T00:30:51;-0.10;99.90
13245;DHT22;6689;53.400;12.486;2023-02-28T00:33:20;0.00;99.90
13245;DHT22;6689;53.400;12.486;2023-02-28T00:35:47;-0.20;99.90
13245;DHT22;6689;53.400;12.486;2023-02-28T00:38:14;-0.20;99.90
13245;DHT22;6689;53.400;12.486;2023-02-28T00:40:43;-0.30;99.90
13245;DHT22;6689;53.400;12.486;2023-02-28T00:43:10;-0.30;99.90
13245;DHT22;6689;53.400;12.486;2023-02-28T00:45:38;-0.30;99.90
13245;DHT22;6689;53.400;12.486;2023-02-28T00:48:08;-0.30;99.90
13245;DHT22;6689;53.400;12.486;2023-02-28T00:50:35;-0.30;99.90
13245;DHT22;6689;53.400;12.486;2023-02-28T00:53:02;-0.30;99.90
13245;DHT22;6689;53.400;12.486;2023-02-28T00:55:30;-0.30;99.90
13245;DHT22;6689;53.400;12.486;2023-02-28T00:57:57;-0.30;99.90
13245;DHT22;6689;53.400;12.486;2023-02-28T01:00:25;-0.30;99.90
13245;DHT22;6689;53.400;12.486;2023-02-28T01:02:52;-0.40;99.90
13245;DHT22;6689;53.400;12.486;2023-02-28T01:05:20;-0.40;99.90
13245;DHT22;6689;53.400;12.486;2023-02-28T01:07:48;-0.40;99.90
13245;DHT22;6689;53.400;12.486;2023-02-28T01:10:15;-0.50;99.90
13245;DHT22;6689;53.400;12.486;2023-02-28T01:12:43;-0.50;99.90
13245;DHT22;6689;53.400;12.486;2023-02-28T01:15:10;-0.50;99.90
13245;DHT22;6689;53.400;12.486;2023-02-28T01:17:38;-0.50;99.90
13245;DHT22;6689;53.400;12.486;2023-02-28T01:20:06;-0.50;99.90
13245;DHT22;6689;53.400;12.486;2023-02-28T01:22:36;-0.50;99.90
13245;DHT22;6689;53.400;12.486;2023-02-28T01:25:04;-0.60;99.90
13245;DHT22;6689;53.400;12.486;2023-02-28T01:27:31;-0.50;99.90
13245;DHT22;6689;53.400;12.486;2023-02-28T01:29:58;-0.50;99.90
13245;DHT22;6689;53.400;12.486;2023-02-28T01:32:26;-0.50;99.90
13245;DHT22;6689;53.400;12.486;2023-02-28T01:34:54;-0.50;99.90
13245;DHT22;6689;53.400;12.486;2023-02-28T01:37:21;-0.50;99.90
13245;DHT22;6689;53.400;12.486;2023-02-28T01:39:50;-0.30;99.90
13245;DHT22;6689;53.400;12.486;2023-02-28T01:42:17;-0.40;99.90
13245;DHT22;6689;53.400;12.486;2023-02-28T01:45:01;-0.40;99.90
13245;DHT22;6689;53.400;12.486;2023-02-28T01:47:31;-0.40;99.90
13245;DHT22;6689;53.400;12.486;2023-02-28T01:50:02;-0.40;99.90
13245;DHT22;6689;53.400;12.486;2023-02-28T01:52:31;-0.40;99.90
13245;DHT22;6689;53.400;12.486;2023-02-28T01:55:02;-0.40;99.90
13245;DHT22;6689;53.400;12.486;2023-02-28T01:57:35;-0.40;99.90
13245;DHT22;6689;53.400;12.486;2023-02-28T02:00:09;-0.40;99.90
13245;DHT22;6689;53.400;12.486;2023-02-28T02:02:39;-0.50;99.90
13245;DHT22;6689;53.400;12.486;2023-02-28T02:05:09;-0.50;99.90
13245;DHT22;6689;53.400;12.486;2023-02-28T02:07:38;-0.50;99.90
13245;DHT22;6689;53.400;12.486;2023-02-28T02:10:13;-0.50;99.90
13245;DHT22;6689;53.400;12.486;2023-02-28T02:12:58;-0.50;99.90
13245;DHT22;6689;53.400;12.486;2023-02-28T02:15:34;-0.50;99.90
13245;DHT22;6689;53.400;12.486;2023-02-28T02:18:05;-0.50;99.90
13245;DHT22;6689;53.400;12.486;2023-02-28T02:23:58;-0.60;99.90
13245;DHT22;6689;53.400;12.486;2023-02-28T02:26:52;-0.60;99.90
13245;DHT22;6689;53.400;12.486;2023-02-28T02:29:41;-0.60;99.90
13245;DHT22;6689;53.400;12.486;2023-02-28T02:32:54;-0.60;99.90
13245;DHT22;6689;53.400;12.486;2023-02-28T02:35:28;-0.60;99.90
13245;DHT22;6689;53.400;12.486;2023-02-28T02:38:04;-0.60;99.90
13245;DHT22;6689;53.400;12.486;2023-02-28T02:40:37;-0.70;99.90
13245;DHT22;6689;53.400;12.486;2023-02-28T02:43:08;-0.70;99.90
13245;DHT22;6689;53.400;12.486;2023-02-28T02:45:40;-0.80;99.90
13245;DHT22;6689;53.400;12.486;2023-02-28T02:48:11;-0.80;99.90
13245;DHT22;6689;53.400;12.486;2023-02-28T02:50:44;-0.80;99.90
13245;DHT22;6689;53.400;12.486;2023-02-28T02:53:14;-0.90;99.90
13245;DHT22;6689;53.400;12.486;2023-02-28T02:55:45;-0.80;99.90
13245;DHT22;6689;53.400;12.486;2023-02-28T02:58:22;-0.90;99.90
13245;DHT22;6689;53.400;12.486;2023-02-28T03:00:53;-1.00;99.90
13245;DHT22;6689;53.400;12.486;2023-02-28T03:03:22;-1.00;99.90
13245;DHT22;6689;53.400;12.486;2023-02-28T03:05:57;-1.00;99.90
13245;DHT22;6689;53.400;12.486;2023-02-28T03:08:26;-1.00;99.90
13245;DHT22;6689;53.400;12.486;2023-02-28T03:10:57;-1.00;99.90
13245;DHT22;6689;53.400;12.486;2023-02-28T03:13:42;-1.00;99.90
13245;DHT22;6689;53.400;12.486;2023-02-28T03:19:25;-1.10;99.90
13245;DHT22;6689;53.400;12.486;2023-02-28T03:22:12;-1.00;99.90
13245;DHT22;6689;53.400;12.486;2023-02-28T03:24:44;-1.10;99.90
13245;DHT22;6689;53.400;12.486;2023-02-28T03:27:20;-1.10;99.90
13245;DHT22;6689;53.400;12.486;2023-02-28T03:29:51;-1.10;99.90
13245;DHT22;6689;53.400;12.486;2023-02-28T03:32:24;-1.20;99.90
13245;DHT22;6689;53.400;12.486;2023-02-28T03:34:57;-1.20;99.90
13245;DHT22;6689;53.400;12.486;2023-02-28T03:37:29;-1.10;99.90
13245;DHT22;6689;53.400;12.486;2023-02-28T03:40:00;-1.20;99.90
13245;DHT22;6689;53.400;12.486;2023-02-28T03:42:32;-1.20;99.90
13245;DHT22;6689;53.400;12.486;2023-02-28T03:45:08;-1.20;99.90
13245;DHT22;6689;53.400;12.486;2023-02-28T03:47:40;-1.20;99.90
13245;DHT22;6689;53.400;12.486;2023-02-28T03:50:14;-1.20;99.90
13245;DHT22;6689;53.400;12.486;2023-02-28T03:52:48;-1.20;99.90
13245;DHT22;6689;53.400;12.486;2023-02-28T03:55:18;-1.30;99.90
13245;DHT22;6689;53.400;12.486;2023-02-28T03:57:53;-1.40;99.90
13245;DHT22;6689;53.400;12.486;2023-02-28T04:00:28;-1.40;99.90
13245;DHT22;6689;53.400;12.486;2023-02-28T04:02:57;-1.40;99.90
13245;DHT22;6689;53.400;12.486;2023-02-28T04:05:25;-1.40;99.90
13245;DHT22;6689;53.400;12.486;2023-02-28T04:07:54;-1.40;99.90
13245;DHT22;6689;53.400;12.486;2023-02-28T04:10:30;-1.40;99.90
13245;DHT22;6689;53.400;12.486;2023-02-28T04:12:57;-1.40;99.90
13245;DHT22;6689;53.400;12.486;2023-02-28T04:15:24;-1.40;99.90
13245;DHT22;6689;53.400;12.486;2023-02-28T04:17:53;-1.40;99.90
13245;DHT22;6689;53.400;12.486;2023-02-28T04:20:20;-1.40;99.90
13245;DHT22;6689;53.400;12.486;2023-02-28T04:22:47;-1.40;99.90
13245;DHT22;6689;53.400;12.486;2023-02-28T04:25:16;-1.50;99.90
13245;DHT22;6689;53.400;12.486;2023-02-28T04:27:43;-1.50;99.90
13245;DHT22;6689;53.400;12.486;2023-02-28T04:30:11;-1.50;99.90
13245;DHT22;6689;53.400;12.486;2023-02-28T04:32:39;-1.50;99.90
13245;DHT22;6689;53.400;12.486;2023-02-28T04:35:07;-1.40;99.90
13245;DHT22;6689;53.400;12.486;2023-02-28T04:37:35;-1.50;99.90
13245;DHT22;6689;53.400;12.486;2023-02-28T04:40:03;-1.50;99.90
13245;DHT22;6689;53.400;12.486;2023-02-28T04:42:32;-1.50;99.90
13245;DHT22;6689;53.400;12.486;2023-02-28T04:45:01;-1.60;99.90
13245;DHT22;6689;53.400;12.486;2023-02-28T04:47:28;-1.60;99.90
13245;DHT22;6689;53.400;12.486;2023-02-28T04:49:56;-1.60;99.90
13245;DHT22;6689;53.400;12.486;2023-02-28T04:52:23;-1.60;99.90
13245;DHT22;6689;53.400;12.486;2023-02-28T04:54:51;-1.50;99.90
13245;DHT22;6689;53.400;12.486;2023-02-28T04:57:18;-1.70;99.90
13245;DHT22;6689;53.400;12.486;2023-02-28T04:59:47;-1.70;99.90
13245;DHT22;6689;53.400;12.486;2023-02-28T05:02:14;-1.30;99.90
13245;DHT22;6689;53.400;12.486;2023-02-28T05:04:41;-1.70;99.90
13245;DHT22;6689;53.400;12.486;2023-02-28T05:07:08;-1.70;99.90
13245;DHT22;6689;53.400;12.486;2023-02-28T05:09:36;-1.70;99.90
13245;DHT22;6689;53.400;12.486;2023-02-28T05:12:03;-1.80;99.90
13245;DHT22;6689;53.400;12.486;2023-02-28T05:14:30;-1.70;99.90
13245;DHT22;6689;53.400;12.486;2023-02-28T05:16:59;-1.70;99.90
13245;DHT22;6689;53.400;12.486;2023-02-28T05:19:27;-1.70;99.90
13245;DHT22;6689;53.400;12.486;2023-02-28T05:21:55;-1.70;99.90
13245;DHT22;6689;53.400;12.486;2023-02-28T05:24:22;-1.80;99.90
13245;DHT22;6689;53.400;12.486;2023-02-28T05:26:50;-1.80;99.90
13245;DHT22;6689;53.400;12.486;2023-02-28T05:29:18;-1.80;99.90
13245;DHT22;6689;53.400;12.486;2023-02-28T05:31:46;-1.80;99.90
13245;DHT22;6689;53.400;12.486;2023-02-28T05:34:15;-1.90;99.90
13245;DHT22;6689;53.400;12.486;2023-02-28T05:36:42;-1.90;99.90
13245;DHT22;6689;53.400;12.486;2023-02-28T05:39:10;-1.90;99.90
13245;DHT22;6689;53.400;12.486;2023-02-28T05:41:40;-1.90;99.90
13245;DHT22;6689;53.400;12.486;2023-02-28T05:44:11;-1.90;99.90
13245;DHT22;6689;53.400;12.486;2023-02-28T05:46:40;-1.90;99.90
13245;DHT22;6689;53.400;12.486;2023-02-28T05:49:08;-1.90;99.90
13245;DHT22;6689;53.400;12.486;2023-02-28T05:51:36;-1.90;99.90
13245;DHT22;6689;53.400;12.486;2023-02-28T05:54:05;-1.90;99.90
13245;DHT22;6689;53.400;12.486;2023-02-28T05:56:33;-1.90;99.90
13245;DHT22;6689;53.400;12.486;2023-02-28T05:59:01;-2.00;99.90
13245;DHT22;6689;53.400;12.486;2023-02-28T06:01:33;-2.00;99.90
13245;DHT22;6689;53.400;12.486;2023-02-28T06:04:02;-2.00;99.90
13245;DHT22;6689;53.400;12.486;2023-02-28T06:06:29;-2.00;99.90
13245;DHT22;6689;53.400;12.486;2023-02-28T06:08:59;-1.90;99.90
13245;DHT22;6689;53.400;12.486;2023-02-28T06:11:26;-1.90;99.90
13245;DHT22;6689;53.400;12.486;2023-02-28T06:13:54;-2.00;99.90
13245;DHT22;6689;53.400;12.486;2023-02-28T06:16:22;-2.00;99.90
13245;DHT22;6689;53.400;12.486;2023-02-28T06:18:50;-1.90;99.90
13245;DHT22;6689;53.400;12.486;2023-02-28T06:21:18;-2.00;99.90
13245;DHT22;6689;53.400;12.486;2023-02-28T06:23:45;-2.00;99.90
13245;DHT22;6689;53.400;12.486;2023-02-28T06:26:14;-2.00;99.90
13245;DHT22;6689;53.400;12.486;2023-02-28T06:28:41;-2.00;99.90
13245;DHT22;6689;53.400;12.486;2023-02-28T06:31:10;-1.90;99.90
13245;DHT22;6689;53.400;12.486;2023-02-28T06:33:38;-1.90;99.90
13245;DHT22;6689;53.400;12.486;2023-02-28T06:36:07;-1.90;99.90
13245;DHT22;6689;53.400;12.486;2023-02-28T06:38:35;-1.90;99.90
13245;DHT22;6689;53.400;12.486;2023-02-28T06:41:03;-1.90;99.90
13245;DHT22;6689;53.400;12.486;2023-02-28T06:43:36;-1.90;99.90
13245;DHT22;6689;53.400;12.486;2023-02-28T06:46:06;-1.80;99.90
13245;DHT22;6689;53.400;12.486;2023-02-28T06:48:33;-1.80;99.90
13245;DHT22;6689;53.400;12.486;2023-02-28T06:51:05;-1.80;99.90
13245;DHT22;6689;53.400;12.486;2023-02-28T06:53:32;-1.70;99.90
13245;DHT22;6689;53.400;12.486;2023-02-28T06:56:03;-1.60;99.90
13245;DHT22;6689;53.400;12.486;2023-02-28T06:58:33;-1.30;99.90
13245;DHT22;6689;53.400;12.486;2023-02-28T07:01:01;-1.10;99.90
13245;DHT22;6689;53.400;12.486;2023-02-28T07:03:28;-0.90;99.90
13245;DHT22;6689;53.400;12.486;2023-02-28T07:05:56;-0.70;99.90
13245;DHT22;6689;53.400;12.486;2023-02-28T07:08:23;-0.40;99.90
13245;DHT22;6689;53.400;12.486;2023-02-28T07:10:52;-0.20;99.90
13245;DHT22;6689;53.400;12.486;2023-02-28T07:13:20;0.00;99.90
13245;DHT22;6689;53.400;12.486;2023-02-28T07:15:55;0.20;99.90
13245;DHT22;6689;53.400;12.486;2023-02-28T07:18:23;0.30;99.90
13245;DHT22;6689;53.400;12.486;2023-02-28T07:20:51;0.40;99.90
13245;DHT22;6689;53.400;12.486;2023-02-28T07:23:20;0.50;99.90
13245;DHT22;6689;53.400;12.486;2023-02-28T07:25:53;0.70;99.90
13245;DHT22;6689;53.400;12.486;2023-02-28T07:28:20;1.00;99.90
13245;DHT22;6689;53.400;12.486;2023-02-28T07:30:47;1.20;99.90
13245;DHT22;6689;53.400;12.486;2023-02-28T07:33:17;1.30;99.90
13245;DHT22;6689;53.400;12.486;2023-02-28T07:35:45;1.50;99.90
13245;DHT22;6689;53.400;12.486;2023-02-28T07:38:12;1.90;99.90
13245;DHT22;6689;53.400;12.486;2023-02-28T07:40:40;2.50;99.90
13245;DHT22;6689;53.400;12.486;2023-02-28T07:43:07;2.70;99.90
13245;DHT22;6689;53.400;12.486;2023-02-28T07:45:34;2.80;99.90
13245;DHT22;6689;53.400;12.486;2023-02-28T07:48:02;2.80;99.90
13245;DHT22;6689;53.400;12.486;2023-02-28T07:50:31;4.00;99.90
13245;DHT22;6689;53.400;12.486;2023-02-28T07:52:58;4.40;99.90
13245;DHT22;6689;53.400;12.486;2023-02-28T07:55:25;7.80;99.90
13245;DHT22;6689;53.400;12.486;2023-02-28T07:57:53;10.60;20.90
13245;DHT22;6689;53.400;12.486;2023-02-28T08:00:21;12.40;1.00
13245;DHT22;6689;53.400;12.486;2023-02-28T08:02:49;14.00;1.00
13245;DHT22;6689;53.400;12.486;2023-02-28T08:05:16;15.40;1.00
13245;DHT22;6689;53.400;12.486;2023-02-28T08:07:45;16.60;1.00
13245;DHT22;6689;53.400;12.486;2023-02-28T08:10:13;17.60;1.00
13245;DHT22;6689;53.400;12.486;2023-02-28T08:12:43;18.60;1.00
13245;DHT22;6689;53.400;12.486;2023-02-28T08:15:11;19.40;1.00
13245;DHT22;6689;53.400;12.486;2023-02-28T08:17:41;20.20;1.00
13245;DHT22;6689;53.400;12.486;2023-02-28T08:20:09;20.80;1.00
13245;DHT22;6689;53.400;12.486;2023-02-28T08:22:37;21.40;1.00
13245;DHT22;6689;53.400;12.486;2023-02-28T08:25:07;21.80;1.00
13245;DHT22;6689;53.400;12.486;2023-02-28T08:27:34;22.10;1.00
13245;DHT22;6689;53.400;12.486;2023-02-28T08:30:02;22.40;1.00
13245;DHT22;6689;53.400;12.486;2023-02-28T08:32:32;22.60;1.00
13245;DHT22;6689;53.400;12.486;2023-02-28T08:35:00;22.90;1.00
13245;DHT22;6689;53.400;12.486;2023-02-28T08:37:28;22.90;1.00
13245;DHT22;6689;53.400;12.486;2023-02-28T08:39:56;23.00;1.00
13245;DHT22;6689;53.400;12.486;2023-02-28T08:42:24;23.10;1.00
13245;DHT22;6689;53.400;12.486;2023-02-28T08:44:52;23.20;1.00
13245;DHT22;6689;53.400;12.486;2023-02-28T08:47:19;23.10;1.00
13245;DHT22;6689;53.400;12.486;2023-02-28T08:49:47;23.30;1.00
13245;DHT22;6689;53.400;12.486;2023-02-28T08:52:14;22.80;1.00
13245;DHT22;6689;53.400;12.486;2023-02-28T08:54:41;20.40;1.00
13245;DHT22;6689;53.400;12.486;2023-02-28T08:57:09;16.50;1.00
13245;DHT22;6689;53.400;12.486;2023-02-28T08:59:37;14.10;1.00
13245;DHT22;6689;53.400;12.486;2023-02-28T09:02:08;12.60;1.00
13245;DHT22;6689;53.400;12.486;2023-02-28T09:04:36;11.50;1.00
13245;DHT22;6689;53.400;12.486;2023-02-28T09:07:03;10.60;1.00
13245;DHT22;6689;53.400;12.486;2023-02-28T09:09:31;9.30;1.00
13245;DHT22;6689;53.400;12.486;2023-02-28T09:11:58;8.50;1.00
13245;DHT22;6689;53.400;12.486;2023-02-28T09:14:26;7.80;1.00
13245;DHT22;6689;53.400;12.486;2023-02-28T09:16:55;7.40;1.90
13245;DHT22;6689;53.400;12.486;2023-02-28T09:19:22;7.00;11.80
13245;DHT22;6689;53.400;12.486;2023-02-28T09:21:50;6.70;31.20
13245;DHT22;6689;53.400;12.486;2023-02-28T09:24:18;6.60;34.40
13245;DHT22;6689;53.400;12.486;2023-02-28T09:26:46;6.40;36.40
13245;DHT22;6689;53.400;12.486;2023-02-28T09:29:13;6.30;35.70
13245;DHT22;6689;53.400;12.486;2023-02-28T09:31:42;6.30;39.00
13245;DHT22;6689;53.400;12.486;2023-02-28T09:34:14;6.20;40.70
13245;DHT22;6689;53.400;12.486;2023-02-28T09:36:43;6.00;28.30
13245;DHT22;6689;53.400;12.486;2023-02-28T09:39:14;6.10;52.80
13245;DHT22;6689;53.400;12.486;2023-02-28T09:41:43;6.10;32.20
13245;DHT22;6689;53.400;12.486;2023-02-28T09:44:22;6.10;32.30
13245;DHT22;6689;53.400;12.486;2023-02-28T09:46:55;6.20;26.40
13245;DHT22;6689;53.400;12.486;2023-02-28T09:49:31;6.30;32.00
13245;DHT22;6689;53.400;12.486;2023-02-28T09:52:02;6.40;32.10
13245;DHT22;6689;53.400;12.486;2023-02-28T09:54:31;6.30;24.50
13245;DHT22;6689;53.400;12.486;2023-02-28T09:57:04;6.30;17.00
13245;DHT22;6689;53.400;12.486;2023-02-28T09:59:47;6.40;22.10
13245;DHT22;6689;53.400;12.486;2023-02-28T10:02:35;6.50;12.10
13245;DHT22;6689;53.400;12.486;2023-02-28T10:05:10;6.60;16.00
13245;DHT22;6689;53.400;12.486;2023-02-28T10:07:49;6.50;13.60
13245;DHT22;6689;53.400;12.486;2023-02-28T10:10:24;6.60;8.60
13245;DHT22;6689;53.400;12.486;2023-02-28T10:12:55;6.50;14.20
13245;DHT22;6689;53.400;12.486;2023-02-28T10:15:26;6.40;6.10
13245;DHT22;6689;53.400;12.486;2023-02-28T10:17:57;6.50;13.00
13245;DHT22;6689;53.400;12.486;2023-02-28T10:20:33;6.60;8.70
13245;DHT22;6689;53.400;12.486;2023-02-28T10:23:05;6.60;1.00
13245;DHT22;6689;53.400;12.486;2023-02-28T10:25:38;6.80;11.60
13245;DHT22;6689;53.400;12.486;2023-02-28T10:28:15;6.90;6.70
13245;DHT22;6689;53.400;12.486;2023-02-28T10:30:46;7.00;5.50
13245;DHT22;6689;53.400;12.486;2023-02-28T10:33:21;7.10;2.70
13245;DHT22;6689;53.400;12.486;2023-02-28T10:35:52;7.10;4.60
13245;DHT22;6689;53.400;12.486;2023-02-28T10:38:21;7.10;1.00
13245;DHT22;6689;53.400;12.486;2023-02-28T10:40:49;7.10;1.00
13245;DHT22;6689;53.400;12.486;2023-02-28T10:43:21;7.30;1.00
13245;DHT22;6689;53.400;12.486;2023-02-28T10:45:59;7.00;1.00
13245;DHT22;6689;53.400;12.486;2023-02-28T10:48:34;7.20;1.00
13245;DHT22;6689;53.400;12.486;2023-02-28T10:51:06;7.10;1.00
13245;DHT22;6689;53.400;12.486;2023-02-28T10:53:37;7.30;1.00
13245;DHT22;6689;53.400;12.486;2023-02-28T10:56:15;7.40;1.00
13245;DHT22;6689;53.400;12.486;2023-02-28T10:58:49;7.50;1.00
13245;DHT22;6689;53.400;12.486;2023-02-28T11:01:20;7.60;1.00
13245;DHT22;6689;53.400;12.486;2023-02-28T11:03:48;7.70;1.00
13245;DHT22;6689;53.400;12.486;2023-02-28T11:06:19;7.80;1.00
13245;DHT22;6689;53.400;12.486;2023-02-28T11:08:49;7.90;1.00
13245;DHT22;6689;53.400;12.486;2023-02-28T11:11:17;8.00;1.00
13245;DHT22;6689;53.400;12.486;2023-02-28T11:13:46;8.10;1.00
13245;DHT22;6689;53.400;12.486;2023-02-28T11:16:16;8.10;1.00
13245;DHT22;6689;53.400;12.486;2023-02-28T11:18:48;8.20;1.00
13245;DHT22;6689;53.400;12.486;2023-02-28T11:21:21;8.30;1.00
13245;DHT22;6689;53.400;12.486;2023-02-28T11:23:53;8.20;1.00
13245;DHT22;6689;53.400;12.486;2023-02-28T11:26:39;8.30;1.00
13245;DHT22;6689;53.400;12.486;2023-02-28T11:29:16;8.20;1.00
13245;DHT22;6689;53.400;12.486;2023-02-28T11:32:05;8.30;1.00
13245;DHT22;6689;53.400;12.486;2023-02-28T11:34:36;8.40;1.00
13245;DHT22;6689;53.400;12.486;2023-02-28T11:37:09;8.40;1.00
13245;DHT22;6689;53.400;12.486;2023-02-28T11:39:37;8.50;1.00
13245;DHT22;6689;53.400;12.486;2023-02-28T11:42:14;8.50;1.00
13245;DHT22;6689;53.400;12.486;2023-02-28T11:44:56;8.60;1.00
13245;DHT22;6689;53.400;12.486;2023-02-28T11:47:33;8.70;1.00
13245;DHT22;6689;53.400;12.486;2023-02-28T11:50:16;8.80;1.00
13245;DHT22;6689;53.400;12.486;2023-02-28T11:52:53;8.80;1.00
13245;DHT22;6689;53.400;12.486;2023-02-28T11:55:25;8.80;1.00
13245;DHT22;6689;53.400;12.486;2023-02-28T11:58:02;8.70;1.00
13245;DHT22;6689;53.400;12.486;2023-02-28T12:00:44;8.90;1.00
13245;DHT22;6689;53.400;12.486;2023-02-28T12:03:23;8.80;1.00
13245;DHT22;6689;53.400;12.486;2023-02-28T12:06:00;9.00;1.00
13245;DHT22;6689;53.400;12.486;2023-02-28T12:08:51;9.00;1.00
13245;DHT22;6689;53.400;12.486;2023-02-28T12:11:32;8.80;1.00
13245;DHT22;6689;53.400;12.486;2023-02-28T12:17:17;8.90;1.00
13245;DHT22;6689;53.400;12.486;2023-02-28T12:19:53;8.60;1.00
13245;DHT22;6689;53.400;12.486;2023-02-28T12:22:29;8.70;1.00
13245;DHT22;6689;53.400;12.486;2023-02-28T12:25:22;8.70;1.00
13245;DHT22;6689;53.400;12.486;2023-02-28T12:27:52;8.90;1.00
13245;DHT22;6689;53.400;12.486;2023-02-28T12:30:23;8.90;1.00
13245;DHT22;6689;53.400;12.486;2023-02-28T12:32:55;8.80;1.00
13245;DHT22;6689;53.400;12.486;2023-02-28T12:35:26;8.60;1.00
13245;DHT22;6689;53.400;12.486;2023-02-28T12:38:04;8.60;1.00
13245;DHT22;6689;53.400;12.486;2023-02-28T12:40:42;8.80;1.00
13245;DHT22;6689;53.400;12.486;2023-02-28T12:43:14;8.80;1.00
13245;DHT22;6689;53.400;12.486;2023-02-28T12:45:44;8.80;1.00
13245;DHT22;6689;53.400;12.486;2023-02-28T12:48:17;8.40;1.00
13245;DHT22;6689;53.400;12.486;2023-02-28T12:50:46;8.40;1.00
13245;DHT22;6689;53.400;12.486;2023-02-28T12:53:18;8.60;1.00
13245;DHT22;6689;53.400;12.486;2023-02-28T12:56:00;8.80;1.00
13245;DHT22;6689;53.400;12.486;2023-02-28T12:58:33;8.80;1.00
13245;DHT22;6689;53.400;12.486;2023-02-28T13:01:24;8.90;1.00
13245;DHT22;6689;53.400;12.486;2023-02-28T13:07:19;9.00;1.00
13245;DHT22;6689;53.400;12.486;2023-02-28T13:09:54;9.00;1.00
13245;DHT22;6689;53.400;12.486;2023-02-28T13:12:24;8.90;1.00
13245;DHT22;6689;53.400;12.486;2023-02-28T13:15:03;8.60;1.00
13245;DHT22;6689;53.400;12.486;2023-02-28T13:17:31;8.90;1.00
13245;DHT22;6689;53.400;12.486;2023-02-28T13:20:00;8.70;1.00
13245;DHT22;6689;53.400;12.486;2023-02-28T13:22:39;8.60;1.00
13245;DHT22;6689;53.400;12.486;2023-02-28T13:34:38;8.80;1.00
13245;DHT22;6689;53.400;12.486;2023-02-28T13:37:34;8.80;1.00
13245;DHT22;6689;53.400;12.486;2023-02-28T13:40:27;8.80;1.00
13245;DHT22;6689;53.400;12.486;2023-02-28T13:42:54;8.60;1.00
13245;DHT22;6689;53.400;12.486;2023-02-28T13:45:24;8.50;1.00
13245;DHT22;6689;53.400;12.486;2023-02-28T13:47:56;8.50;1.00
13245;DHT22;6689;53.400;12.486;2023-02-28T13:50:32;8.40;1.00
13245;DHT22;6689;53.400;12.486;2023-02-28T13:56:30;8.20;1.00
13245;DHT22;6689;53.400;12.486;2023-02-28T13:59:06;8.30;1.00
13245;DHT22;6689;53.400;12.486;2023-02-28T14:01:54;8.50;1.00
13245;DHT22;6689;53.400;12.486;2023-02-28T14:04:43;8.60;1.00
13245;DHT22;6689;53.400;12.486;2023-02-28T14:07:20;8.50;1.00
13245;DHT22;6689;53.400;12.486;2023-02-28T14:09:57;8.30;1.00
13245;DHT22;6689;53.400;12.486;2023-02-28T14:12:51;8.50;1.00
13245;DHT22;6689;53.400;12.486;2023-02-28T14:15:34;8.50;1.00
13245;DHT22;6689;53.400;12.486;2023-02-28T14:18:05;8.50;1.00
13245;DHT22;6689;53.400;12.486;2023-02-28T14:20:40;8.50;1.00
13245;DHT22;6689;53.400;12.486;2023-02-28T14:23:14;8.50;1.00
13245;DHT22;6689;53.400;12.486;2023-02-28T14:25:51;8.50;1.00
13245;DHT22;6689;53.400;12.486;2023-02-28T14:28:26;8.20;1.00
13245;DHT22;6689;53.400;12.486;2023-02-28T14:31:03;8.10;1.00
13245;DHT22;6689;53.400;12.486;2023-02-28T14:33:51;8.10;1.00
13245;DHT22;6689;53.400;12.486;2023-02-28T14:36:27;8.20;1.00
13245;DHT22;6689;53.400;12.486;2023-02-28T14:39:00;8.10;1.00
13245;DHT22;6689;53.400;12.486;2023-02-28T14:41:30;8.30;1.00
13245;DHT22;6689;53.400;12.486;2023-02-28T14:44:02;8.30;1.00
13245;DHT22;6689;53.400;12.486;2023-02-28T14:46:35;8.20;1.00
13245;DHT22;6689;53.400;12.486;2023-02-28T14:49:04;8.30;1.00
13245;DHT22;6689;53.400;12.486;2023-02-28T14:51:35;7.90;1.00
13245;DHT22;6689;53.400;12.486;2023-02-28T14:54:03;8.00;1.00
13245;DHT22;6689;53.400;12.486;2023-02-28T14:56:35;7.90;1.00
13245;DHT22;6689;53.400;12.486;2023-02-28T14:59:04;7.80;1.00
13245;DHT22;6689;53.400;12.486;2023-02-28T15:01:35;7.90;1.00
13245;DHT22;6689;53.400;12.486;2023-02-28T15:04:05;7.90;1.00
13245;DHT22;6689;53.400;12.486;2023-02-28T15:06:34;8.00;1.00
13245;DHT22;6689;53.400;12.486;2023-02-28T15:09:14;7.90;1.00
13245;DHT22;6689;53.400;12.486;2023-02-28T15:11:45;7.90;1.00
13245;DHT22;6689;53.400;12.486;2023-02-28T15:14:19;8.00;1.00
13245;DHT22;6689;53.400;12.486;2023-02-28T15:16:50;8.00;1.00
13245;DHT22;6689;53.400;12.486;2023-02-28T15:19:22;8.00;1.00
13245;DHT22;6689;53.400;12.486;2023-02-28T15:21:55;8.00;1.00
13245;DHT22;6689;53.400;12.486;2023-02-28T15:24:35;7.70;1.00
13245;DHT22;6689;53.400;12.486;2023-02-28T15:27:05;7.80;1.00
13245;DHT22;6689;53.400;12.486;2023-02-28T15:29:44;7.80;1.00
13245;DHT22;6689;53.400;12.486;2023-02-28T15:32:28;7.70;1.00
13245;DHT22;6689;53.400;12.486;2023-02-28T15:34:56;7.70;1.00
13245;DHT22;6689;53.400;12.486;2023-02-28T15:37:35;7.80;1.00
13245;DHT22;6689;53.400;12.486;2023-02-28T15:40:16;7.80;1.00
13245;DHT22;6689;53.400;12.486;2023-02-28T15:42:58;7.80;1.00
13245;DHT22;6689;53.400;12.486;2023-02-28T15:45:32;7.90;1.00
13245;DHT22;6689;53.400;12.486;2023-02-28T15:48:09;7.80;1.00
13245;DHT22;6689;53.400;12.486;2023-02-28T15:50:40;7.80;1.00
13245;DHT22;6689;53.400;12.486;2023-02-28T15:53:13;7.80;1.00
13245;DHT22;6689;53.400;12.486;2023-02-28T15:55:41;7.80;1.00
13245;DHT22;6689;53.400;12.486;2023-02-28T15:58:10;7.70;1.00
13245;DHT22;6689;53.400;12.486;2023-02-28T16:00:39;7.70;1.00
13245;DHT22;6689;53.400;12.486;2023-02-28T16:03:25;7.70;1.00
13245;DHT22;6689;53.400;12.486;2023-02-28T16:08:54;7.60;1.00
13245;DHT22;6689;53.400;12.486;2023-02-28T16:11:23;7.60;1.00
13245;DHT22;6689;53.400;12.486;2023-02-28T16:13:50;7.50;1.00
13245;DHT22;6689;53.400;12.486;2023-02-28T16:16:19;7.50;1.00
13245;DHT22;6689;53.400;12.486;2023-02-28T16:18:47;7.40;1.00
13245;DHT22;6689;53.400;12.486;2023-02-28T16:21:14;7.40;1.00
13245;DHT22;6689;53.400;12.486;2023-02-28T16:23:42;7.30;1.00
13245;DHT22;6689;53.400;12.486;2023-02-28T16:26:18;7.20;1.00
13245;DHT22;6689;53.400;12.486;2023-02-28T16:28:49;7.10;1.00
13245;DHT22;6689;53.400;12.486;2023-02-28T16:31:18;7.00;1.00
13245;DHT22;6689;53.400;12.486;2023-02-28T16:33:48;6.90;1.00
13245;DHT22;6689;53.400;12.486;2023-02-28T16:36:17;6.80;1.00
13245;DHT22;6689;53.400;12.486;2023-02-28T16:38:44;6.70;1.00
13245;DHT22;6689;53.400;12.486;2023-02-28T16:41:18;6.60;1.00